This is the latest recevied weather packets stored in our database for station/object SP5EB-3. If no packets are shown the sender has not sent any weather packets the latest 10 day(s).
| Time | Temp. | Humidity | Pressure | Rain* | Wind** | Luminosity | Snow |
|---|---|---|---|---|---|---|---|
| 1788074948 | 18.33° C | 99% | 1013.9 hPa | - | - | - | - |
| 1788074678 | 20.56° C | 99% | 1014.1 hPa | - | - | - | - |
| 1788074536 | 17.78° C | 99% | 1013.9 hPa | - | - | - | - |
| 1788073751 | 20° C | 99% | 1014 hPa | - | - | - | - |
| 1788073263 | 17.22° C | 99% | 1013.9 hPa | - | - | - | - |
| 1788070694 | 17.22° C | 99% | 1013.8 hPa | - | - | - | - |
| 1788069748 | 16.67° C | 99% | 1013.8 hPa | - | - | - | - |
| 1788069507 | 16.67° C | 99% | 1013.8 hPa | - | - | - | - |
| 1788068947 | 16.11° C | 99% | 1013.8 hPa | - | - | - | - |
| 1788068819 | 16.11° C | 99% | 1013.8 hPa | - | - | - | - |
| 1788068535 | 16.11° C | 1% | 1013.9 hPa | - | - | - | - |
| 1788068203 | 16.11° C | 1% | 1013.8 hPa | - | - | - | - |
| 1788067953 | 15.56° C | 1% | 1013.8 hPa | - | - | - | - |
| 1788067895 | 15.56° C | 1% | 1013.8 hPa | - | - | - | - |
| 1788067645 | 15.56° C | 1% | 1013.8 hPa | - | - | - | - |
| 1788067351 | 15° C | 1% | 1013.8 hPa | - | - | - | - |
| 1788067316 | 15° C | 1% | 1013.8 hPa | - | - | - | - |
| 1788067016 | 15° C | 1% | 1013.8 hPa | - | - | - | - |
| 1788066692 | 15° C | 1% | 1013.8 hPa | - | - | - | - |
| 1788066358 | 14.44° C | 19% | 1013.7 hPa | - | - | - | - |
| 1788066062 | 14.44° C | 63% | 1013.7 hPa | - | - | - | - |
| 1788065808 | 14.44° C | 99% | 1013.6 hPa | - | - | - | - |
| 1788065741 | 14.44° C | 99% | 1013.6 hPa | - | - | - | - |
| 1788065598 | 13.89° C | 99% | 1013.6 hPa | - | - | - | - |
| 1788065551 | 13.89° C | 99% | 1013.7 hPa | - | - | - | - |
* Rain since midnight (hover to see other rain measurements)
** Current wind speed in m/s (hover to see current wind gust speed)